LRBS/BBU METAR and TAF weather

Enter ICAO airport designator
Station Type Date Time Source
LRBS METAR 2019/10/23 07:00 UTC NOAA

LRBS 230700Z VRB01KT 0300 R07/0375N R25/0550 FG BKN001 10/10 Q1024 BECMG 0600 BKN002


Station Type Date Time Source
LRBS Decoded METAR 2019/10/23 07:00 UTC NOAA

Bucuresti / Imh, Romania (LRBS) 44-30N 026-08E 91M
Oct 23, 2019 - 03:00 AM EDT / 2019.10.23 0700 UTC
Wind: Variable at 1 MPH (1 KT):0
Visibility: less than 1 mile:0
Sky conditions: mostly cloudy
Weather: fog
Temperature: 50 F (10 C)
Dew Point: 50 F (10 C)
Relative Humidity: 100%
Pressure (altimeter): 30.24 in. Hg (1024 hPa)
ob: LRBS 230700Z VRB01KT 0300 R07/0375N R25/0550 FG BKN001 10/10 Q1024 BECMG 0600 BKN002
cycle: 7

Station Type Date Time Source
LRBS TAF 2019/10/23 06:33 UTC NOAA

TAF TAF LRBS 230500Z 2306/2406 VRB04KT 0600 FG BKN002
TEMPO 2306/2308 0150 FG VV001
BECMG 2308/2310 3000 BR SCT010
BECMG 2310/2311 CAVOK
BECMG 2317/2319 5000 BR
BECMG 2321/2323 1500 BR
BECMG 2323/2401 0600 FG BKN002
TEMPO 2401/2406 0150 FG VV001

Example: see airport list